createdAt,value
2022-10-23T00:01:05.730Z,8
2022-10-23T00:03:36.022Z,8
2022-10-23T00:06:07.308Z,8
2022-10-23T00:08:37.747Z,8
2022-10-23T00:11:09.826Z,8
2022-10-23T00:13:40.806Z,8
2022-10-23T00:16:11.843Z,8
2022-10-23T00:18:42.920Z,8
2022-10-23T00:21:13.504Z,4
2022-10-23T00:23:43.834Z,8
2022-10-23T00:26:14.480Z,8
2022-10-23T00:28:45.102Z,8
2022-10-23T00:31:15.440Z,8
2022-10-23T00:33:46.395Z,4
2022-10-23T00:36:17.624Z,4
2022-10-23T00:38:48.385Z,5
2022-10-23T00:41:19.588Z,8
2022-10-23T00:43:50.710Z,6
2022-10-23T00:46:22.117Z,8
2022-10-23T00:48:52.654Z,7
2022-10-23T00:51:23.963Z,8
2022-10-23T00:54:00.913Z,8
2022-10-23T00:56:26.447Z,6
2022-10-23T00:58:57.714Z,8
2022-10-23T01:01:28.036Z,8
2022-10-23T01:03:59.089Z,7
2022-10-23T01:06:30.320Z,8
2022-10-23T01:09:01.019Z,7
2022-10-23T01:11:31.560Z,8
2022-10-23T01:14:06.644Z,8
2022-10-23T01:16:37.127Z,7
2022-10-23T01:19:08.304Z,7
2022-10-23T01:21:39.027Z,4
2022-10-23T01:24:09.876Z,8
2022-10-23T01:26:41.341Z,7
2022-10-23T01:29:12.981Z,4
2022-10-23T01:31:43.693Z,7
2022-10-23T01:34:14.562Z,4
2022-10-23T01:36:45.464Z,8
2022-10-23T01:39:17.060Z,6
2022-10-23T01:41:47.835Z,8
2022-10-23T01:44:19.015Z,6
2022-10-23T01:46:49.847Z,4
2022-10-23T01:49:20.980Z,8
2022-10-23T01:51:51.749Z,7
2022-10-23T01:54:22.446Z,6
2022-10-23T01:56:53.628Z,8
2022-10-23T01:59:24.851Z,8
2022-10-23T02:01:55.964Z,8
2022-10-23T02:04:26.875Z,7
2022-10-23T02:06:57.777Z,4
2022-10-23T02:09:29.073Z,4
2022-10-23T02:12:00.817Z,8
2022-10-23T02:14:31.899Z,8
2022-10-23T02:17:03.030Z,7
2022-10-23T02:19:35.817Z,8
2022-10-23T02:22:07.074Z,4
2022-10-23T02:24:38.440Z,7
2022-10-23T02:27:09.118Z,12
2022-10-23T02:29:40.107Z,13
2022-10-23T02:32:11.513Z,19
2022-10-23T02:34:45.046Z,16
2022-10-23T02:37:17.950Z,12
2022-10-23T02:39:49.680Z,12
2022-10-23T02:42:20.107Z,10
2022-10-23T02:44:51.282Z,12
2022-10-23T02:47:22.141Z,12
2022-10-23T02:49:52.912Z,12
2022-10-23T02:52:24.043Z,9
2022-10-23T02:54:56.188Z,12
2022-10-23T02:57:27.755Z,12
2022-10-23T02:59:58.350Z,8
2022-10-23T03:02:29.619Z,9
2022-10-23T03:04:59.386Z,12
2022-10-23T03:07:31.257Z,12
2022-10-23T03:10:01.999Z,8
2022-10-23T03:12:32.958Z,8
2022-10-23T03:15:03.388Z,8
2022-10-23T03:17:34.471Z,8
2022-10-23T03:20:05.681Z,8
2022-10-23T03:22:37.086Z,8
2022-10-23T03:25:07.902Z,8
2022-10-23T03:27:38.573Z,12
2022-10-23T03:30:09.430Z,8
2022-10-23T03:32:41.510Z,8
2022-10-23T03:35:12.846Z,8
2022-10-23T03:37:45.490Z,8
2022-10-23T03:40:16.353Z,8
2022-10-23T03:42:48.228Z,8
2022-10-23T03:45:18.960Z,8
2022-10-23T03:47:51.288Z,8
2022-10-23T03:50:22.518Z,8
2022-10-23T03:52:54.416Z,8
2022-10-23T03:55:25.671Z,8
2022-10-23T03:57:56.622Z,8
2022-10-23T04:00:27.792Z,8
2022-10-23T04:02:59.205Z,8
2022-10-23T04:05:30.042Z,8
2022-10-23T04:08:01.310Z,8
2022-10-23T04:10:32.255Z,8
2022-10-23T04:13:03.174Z,8
2022-10-23T04:15:34.379Z,8
2022-10-23T04:18:05.193Z,12
2022-10-23T04:20:36.401Z,8
2022-10-23T04:23:07.260Z,8
2022-10-23T04:25:38.147Z,8
2022-10-23T04:28:09.211Z,11
2022-10-23T04:30:40.113Z,16
2022-10-23T04:33:10.966Z,16
2022-10-23T04:35:41.736Z,12
2022-10-23T04:38:13.007Z,12
2022-10-23T04:40:43.792Z,8
2022-10-23T04:43:14.821Z,12
2022-10-23T04:45:45.678Z,11
2022-10-23T04:48:16.698Z,8
2022-10-23T04:50:48.708Z,8
2022-10-23T04:53:19.908Z,9
2022-10-23T04:55:51.879Z,8
2022-10-23T04:58:23.090Z,12
2022-10-23T05:00:53.952Z,8
2022-10-23T05:03:24.568Z,12
2022-10-23T05:05:55.629Z,11
2022-10-23T05:08:26.871Z,10
2022-10-23T05:10:57.765Z,12
2022-10-23T05:13:28.956Z,12
2022-10-23T05:15:59.671Z,8
2022-10-23T05:18:31.138Z,12
2022-10-23T05:21:02.620Z,11
2022-10-23T05:23:33.561Z,11
2022-10-23T05:26:03.880Z,15
2022-10-23T05:28:34.757Z,8
2022-10-23T05:31:06.042Z,12
2022-10-23T05:33:38.389Z,8
2022-10-23T05:36:09.149Z,12
2022-10-23T05:38:40.428Z,12
2022-10-23T05:41:11.679Z,15
2022-10-23T05:43:44.812Z,12
2022-10-23T05:46:16.683Z,12
2022-10-23T05:48:47.769Z,12
2022-10-23T05:51:18.328Z,12
2022-10-23T05:53:48.897Z,16
2022-10-23T05:56:19.851Z,12
2022-10-23T05:58:50.469Z,12
2022-10-23T06:01:21.791Z,12
2022-10-23T06:03:53.025Z,16
2022-10-23T06:06:23.972Z,12
2022-10-23T06:08:54.524Z,14
2022-10-23T06:11:24.816Z,14
2022-10-23T06:16:26.442Z,16
2022-10-23T06:18:57.940Z,15
2022-10-23T06:21:28.626Z,18
2022-10-23T06:23:59.646Z,16
2022-10-23T06:26:28.513Z,16
2022-10-23T06:29:00.574Z,16
2022-10-23T06:31:32.191Z,16
2022-10-23T06:34:03.223Z,19
2022-10-23T06:36:36.873Z,18
2022-10-23T06:39:08.182Z,19
2022-10-23T06:41:39.205Z,24
2022-10-23T06:44:12.167Z,24
2022-10-23T06:46:43.400Z,20
2022-10-23T06:49:14.573Z,18
2022-10-23T06:51:46.960Z,20
2022-10-23T06:54:18.178Z,20
2022-10-23T06:56:48.982Z,19
2022-10-23T06:59:20.297Z,16
2022-10-23T07:01:50.830Z,16
2022-10-23T07:04:21.359Z,16
2022-10-23T07:06:52.329Z,16
2022-10-23T07:09:23.392Z,16
2022-10-23T07:11:54.281Z,20
2022-10-23T07:14:26.578Z,36
2022-10-23T07:16:57.113Z,24
2022-10-23T07:19:26.036Z,39
2022-10-23T07:21:56.484Z,28
2022-10-23T07:24:28.000Z,28
2022-10-23T07:26:58.962Z,32
2022-10-23T07:29:29.879Z,36
2022-10-23T07:32:02.939Z,32
2022-10-23T07:34:34.804Z,28
2022-10-23T07:37:07.183Z,24
2022-10-23T07:39:37.664Z,38
2022-10-23T07:42:08.484Z,37
2022-10-23T07:44:39.321Z,38
2022-10-23T07:47:10.255Z,28
2022-10-23T07:49:40.800Z,28
2022-10-23T07:52:11.277Z,20
2022-10-23T07:54:42.106Z,24
2022-10-23T07:57:13.124Z,20
2022-10-23T07:59:44.277Z,20
2022-10-23T08:02:15.628Z,20
2022-10-23T08:04:46.689Z,20
2022-10-23T08:07:18.664Z,20
2022-10-23T08:09:49.401Z,20
2022-10-23T08:12:20.933Z,20
2022-10-23T08:14:51.729Z,20
2022-10-23T08:17:23.987Z,20
2022-10-23T08:19:53.953Z,20
2022-10-23T08:22:24.682Z,17
2022-10-23T08:24:53.885Z,20
2022-10-23T08:27:24.947Z,20
2022-10-23T08:29:55.738Z,16
2022-10-23T08:32:26.623Z,20
2022-10-23T08:34:58.663Z,20
2022-10-23T08:37:31.961Z,17
2022-10-23T08:40:05.097Z,20
2022-10-23T08:42:35.863Z,20
2022-10-23T08:45:05.429Z,28
2022-10-23T08:47:34.529Z,20
2022-10-23T08:50:06.566Z,21
2022-10-23T08:52:37.674Z,20
2022-10-23T08:55:08.940Z,19
2022-10-23T08:57:41.474Z,16
2022-10-23T09:00:11.872Z,12
2022-10-23T09:02:43.829Z,19
2022-10-23T09:05:14.725Z,20
2022-10-23T09:07:49.722Z,16
2022-10-23T09:10:21.104Z,13
2022-10-23T09:12:53.248Z,16
2022-10-23T09:15:26.356Z,16
2022-10-23T09:17:57.292Z,16
2022-10-23T09:20:29.889Z,16
2022-10-23T09:23:00.689Z,16
2022-10-23T09:25:31.493Z,12
2022-10-23T09:28:05.163Z,12
2022-10-23T09:30:34.962Z,12
2022-10-23T09:33:08.191Z,15
2022-10-23T09:35:39.701Z,12
2022-10-23T09:38:11.193Z,13
2022-10-23T09:40:43.409Z,12
2022-10-23T09:43:13.181Z,12
2022-10-23T09:45:44.586Z,20
2022-10-23T09:48:15.463Z,12
2022-10-23T09:50:46.519Z,12
2022-10-23T09:53:17.519Z,12
2022-10-23T09:55:47.449Z,8
2022-10-23T09:58:18.450Z,8
2022-10-23T10:00:51.123Z,12
2022-10-23T10:03:20.700Z,11
2022-10-23T10:05:51.703Z,8
2022-10-23T10:08:25.486Z,20
2022-10-23T10:10:56.577Z,12
2022-10-23T10:13:27.114Z,10
2022-10-23T10:15:58.426Z,12
2022-10-23T10:18:30.883Z,12
2022-10-23T10:21:02.207Z,12
2022-10-23T10:23:33.367Z,8
2022-10-23T10:26:04.880Z,8
2022-10-23T10:28:35.994Z,8
2022-10-23T10:31:06.898Z,8
2022-10-23T10:33:38.714Z,8
2022-10-23T10:36:10.218Z,8
2022-10-23T10:38:40.990Z,8
2022-10-23T10:41:11.684Z,12
2022-10-23T10:43:43.227Z,8
2022-10-23T10:48:45.901Z,9
2022-10-23T10:51:16.912Z,8
2022-10-23T10:53:48.310Z,8
2022-10-23T10:56:20.260Z,8
2022-10-23T10:58:50.814Z,15
2022-10-23T11:01:21.900Z,8
2022-10-23T11:03:53.253Z,8
2022-10-23T11:06:23.837Z,8
2022-10-23T11:08:57.804Z,8
2022-10-23T11:11:26.128Z,12
2022-10-23T11:13:56.847Z,8
2022-10-23T11:16:28.532Z,8
2022-10-23T11:19:01.665Z,8
2022-10-23T11:21:32.374Z,8
2022-10-23T11:24:03.040Z,11
2022-10-23T11:26:34.070Z,8
2022-10-23T11:29:05.116Z,8
2022-10-23T11:31:36.316Z,6
2022-10-23T11:34:07.263Z,4
2022-10-23T11:36:38.047Z,12
2022-10-23T11:39:09.340Z,12
2022-10-23T11:41:40.538Z,12
2022-10-23T11:44:10.030Z,12
2022-10-23T11:46:41.267Z,8
2022-10-23T11:51:43.052Z,28
2022-10-23T11:54:14.551Z,28
2022-10-23T11:56:45.367Z,16
2022-10-23T11:59:15.694Z,21
2022-10-23T12:01:45.468Z,12
2022-10-23T12:04:16.421Z,19
2022-10-23T12:06:46.763Z,8
2022-10-23T12:09:17.962Z,8
2022-10-23T12:11:48.850Z,11
2022-10-23T12:14:20.150Z,4
2022-10-23T12:16:51.069Z,4
2022-10-23T12:19:21.835Z,4
2022-10-23T12:21:53.637Z,8
2022-10-23T12:24:24.605Z,12
2022-10-23T12:26:55.461Z,8
2022-10-23T12:29:26.491Z,20
2022-10-23T12:31:58.196Z,8
2022-10-23T12:34:29.755Z,4
2022-10-23T12:37:00.969Z,4
2022-10-23T12:39:31.853Z,4
2022-10-23T12:42:04.134Z,4
2022-10-23T12:44:35.226Z,7
2022-10-23T12:47:05.777Z,4
2022-10-23T12:49:37.635Z,4
2022-10-23T12:52:07.136Z,4
2022-10-23T12:54:38.001Z,4
2022-10-23T12:57:08.917Z,4
2022-10-23T12:59:40.309Z,4
2022-10-23T13:02:11.772Z,4
2022-10-23T13:04:43.199Z,4
2022-10-23T13:07:14.238Z,4
2022-10-23T13:09:44.668Z,4
2022-10-23T13:12:16.030Z,4
2022-10-23T13:14:47.063Z,4
2022-10-23T13:17:17.567Z,4
2022-10-23T13:19:48.481Z,8
2022-10-23T13:22:19.899Z,4
2022-10-23T13:24:51.113Z,4
2022-10-23T13:27:23.088Z,0
2022-10-23T13:29:54.738Z,4
2022-10-23T13:32:26.092Z,1
2022-10-23T13:35:03.799Z,4
2022-10-23T13:37:26.814Z,0
2022-10-23T13:39:58.663Z,4
2022-10-23T13:42:29.885Z,4
2022-10-23T13:45:01.048Z,3
2022-10-23T13:47:32.039Z,0
2022-10-23T13:50:04.128Z,0
2022-10-23T13:52:36.161Z,4
2022-10-23T13:55:07.840Z,0
2022-10-23T13:57:39.375Z,0
2022-10-23T14:00:10.795Z,0
2022-10-23T14:02:43.265Z,4
2022-10-23T14:05:15.054Z,7
2022-10-23T14:07:46.840Z,8
2022-10-23T14:10:16.273Z,10
2022-10-23T14:12:47.641Z,4
2022-10-23T14:15:19.198Z,0
2022-10-23T14:17:51.765Z,4
2022-10-23T14:20:24.379Z,0
2022-10-23T14:22:53.109Z,4
2022-10-23T14:25:24.518Z,0
2022-10-23T14:30:26.390Z,0
2022-10-23T14:32:58.061Z,0
2022-10-23T14:35:29.057Z,0
2022-10-23T14:38:00.281Z,4
2022-10-23T14:40:31.927Z,4
2022-10-23T14:43:03.894Z,4
2022-10-23T14:45:35.099Z,4
2022-10-23T14:48:06.599Z,4
2022-10-23T14:50:37.848Z,4
2022-10-23T14:53:09.194Z,4
2022-10-23T14:55:40.481Z,4
2022-10-23T14:58:11.545Z,4
2022-10-23T15:00:46.199Z,4
2022-10-23T15:03:17.344Z,4
2022-10-23T15:05:48.648Z,8
2022-10-23T15:08:19.986Z,12
2022-10-23T15:10:52.259Z,12
2022-10-23T15:13:23.129Z,8
2022-10-23T15:15:55.039Z,8
2022-10-23T15:18:28.258Z,8
2022-10-23T15:21:00.666Z,8
2022-10-23T15:23:32.138Z,8
2022-10-23T15:26:03.281Z,8
2022-10-23T15:28:35.567Z,8
2022-10-23T15:31:07.115Z,8
2022-10-23T15:33:38.570Z,8
2022-10-23T15:36:10.148Z,8
2022-10-23T15:38:42.199Z,8
2022-10-23T15:41:13.621Z,8
2022-10-23T15:43:45.127Z,12
2022-10-23T15:46:16.024Z,16
2022-10-23T15:48:47.351Z,16
2022-10-23T15:51:18.961Z,16
2022-10-23T15:53:50.113Z,16
2022-10-23T15:56:21.499Z,16
2022-10-23T15:58:52.015Z,19
2022-10-23T16:01:24.317Z,18
2022-10-23T16:03:55.675Z,20
2022-10-23T16:06:26.856Z,20
2022-10-23T16:08:59.362Z,20
2022-10-23T16:11:33.450Z,20
2022-10-23T16:14:04.374Z,20
2022-10-23T16:16:36.630Z,21
2022-10-23T16:19:07.725Z,23
2022-10-23T16:21:39.073Z,20
2022-10-23T16:24:10.878Z,25
2022-10-23T16:26:42.388Z,28
2022-10-23T16:29:14.324Z,24
2022-10-23T16:31:45.652Z,20
2022-10-23T16:34:16.743Z,23
2022-10-23T16:36:49.883Z,21
2022-10-23T16:39:21.994Z,21
2022-10-23T16:41:53.234Z,20
2022-10-23T16:44:24.837Z,28
2022-10-23T16:46:56.472Z,25
2022-10-23T16:49:28.175Z,26
2022-10-23T16:52:00.230Z,24
2022-10-23T16:54:32.640Z,24
2022-10-23T16:57:04.560Z,24
2022-10-23T16:59:36.149Z,24
2022-10-23T17:02:07.719Z,24
2022-10-23T17:04:38.955Z,24
2022-10-23T17:07:10.571Z,24
2022-10-23T17:09:41.669Z,24
2022-10-23T17:12:14.176Z,24
2022-10-23T17:14:46.852Z,20
2022-10-23T17:17:18.595Z,24
2022-10-23T17:19:52.832Z,24
2022-10-23T17:22:23.789Z,24
2022-10-23T17:24:55.818Z,24
2022-10-23T17:27:29.186Z,24
2022-10-23T17:30:00.448Z,24
2022-10-23T17:32:32.219Z,27
2022-10-23T17:35:03.837Z,25
2022-10-23T17:37:35.152Z,24
2022-10-23T17:40:09.104Z,24
2022-10-23T17:42:41.114Z,24
2022-10-23T17:45:12.245Z,28
2022-10-23T17:47:43.785Z,27
2022-10-23T17:50:15.402Z,26
2022-10-23T17:52:47.564Z,28
2022-10-23T17:55:19.564Z,28
2022-10-23T17:57:50.440Z,28
2022-10-23T18:00:22.290Z,28
2022-10-23T18:02:54.870Z,26
2022-10-23T18:05:26.452Z,28
2022-10-23T18:07:58.114Z,32
2022-10-23T18:10:29.489Z,28
2022-10-23T18:13:05.684Z,24
2022-10-23T18:15:37.025Z,29
2022-10-23T18:18:08.270Z,28
2022-10-23T18:20:40.622Z,29
2022-10-23T18:23:15.112Z,29
2022-10-23T18:25:46.336Z,28
2022-10-23T18:28:17.515Z,30
2022-10-23T18:30:50.265Z,28
2022-10-23T18:33:20.959Z,28
2022-10-23T18:35:52.093Z,30
2022-10-23T18:38:23.904Z,32
2022-10-23T18:40:54.429Z,29
2022-10-23T18:43:42.411Z,32
2022-10-23T18:46:00.188Z,30
2022-10-23T18:48:31.572Z,32
2022-10-23T18:51:04.074Z,32
2022-10-23T18:53:35.172Z,29
2022-10-23T18:56:06.466Z,32
2022-10-23T18:58:38.936Z,28
2022-10-23T19:01:15.453Z,31
2022-10-23T19:03:47.335Z,32
2022-10-23T19:06:19.795Z,28
2022-10-23T19:08:51.761Z,30
2022-10-23T19:11:23.947Z,28
2022-10-23T19:13:56.132Z,29
2022-10-23T19:16:27.816Z,28
2022-10-23T19:18:59.891Z,28
2022-10-23T19:21:31.905Z,31
2022-10-23T19:24:04.845Z,31
2022-10-23T19:26:36.365Z,29
2022-10-23T19:29:08.911Z,32
2022-10-23T19:31:40.313Z,32
2022-10-23T19:34:12.974Z,30
2022-10-23T19:36:44.935Z,28
2022-10-23T19:39:16.050Z,32
2022-10-23T19:41:46.966Z,28
2022-10-23T19:44:18.312Z,31
2022-10-23T19:46:49.528Z,32
2022-10-23T19:49:20.889Z,29
2022-10-23T19:51:53.036Z,30
2022-10-23T19:54:25.144Z,29
2022-10-23T19:56:57.903Z,27
2022-10-23T19:59:29.502Z,28
2022-10-23T20:02:01.114Z,28
2022-10-23T20:04:32.055Z,28
2022-10-23T20:07:04.670Z,24
2022-10-23T20:09:36.492Z,28
2022-10-23T20:12:09.437Z,28
2022-10-23T20:14:40.350Z,24
2022-10-23T20:17:11.924Z,29
2022-10-23T20:19:44.545Z,28
2022-10-23T20:22:16.035Z,28
2022-10-23T20:24:47.046Z,27
2022-10-23T20:27:19.505Z,28
2022-10-23T20:29:50.487Z,28
2022-10-23T20:32:21.864Z,28
2022-10-23T20:34:53.763Z,27
2022-10-23T20:37:24.845Z,28
2022-10-23T20:39:56.412Z,24
2022-10-23T20:42:27.295Z,23
2022-10-23T20:44:59.226Z,24
2022-10-23T20:47:32.028Z,23
2022-10-23T20:50:04.013Z,24
2022-10-23T20:55:05.126Z,24
2022-10-23T20:57:36.656Z,24
2022-10-23T21:00:10.037Z,24
2022-10-23T21:02:45.811Z,20
2022-10-23T21:05:15.056Z,20
2022-10-23T21:07:46.824Z,24
2022-10-23T21:10:17.955Z,24
2022-10-23T21:12:48.566Z,23
2022-10-23T21:15:20.209Z,24
2022-10-23T21:17:52.428Z,23
2022-10-23T21:20:23.759Z,28
2022-10-23T21:22:55.082Z,24
2022-10-23T21:25:28.192Z,22
2022-10-23T21:28:00.114Z,24
2022-10-23T21:30:36.622Z,24
2022-10-23T21:33:09.171Z,20
2022-10-23T21:35:47.344Z,21
2022-10-23T21:38:13.802Z,22
2022-10-23T21:40:45.205Z,24
2022-10-23T21:43:16.475Z,24
2022-10-23T21:45:46.452Z,21
2022-10-23T21:48:17.685Z,24
2022-10-23T21:53:20.960Z,21
2022-10-23T21:55:53.664Z,20
2022-10-23T21:58:24.749Z,21
2022-10-23T22:00:59.461Z,20
2022-10-23T22:03:31.399Z,23
2022-10-23T22:06:03.415Z,23
2022-10-23T22:08:36.641Z,20
2022-10-23T22:11:06.550Z,20
2022-10-23T22:13:37.376Z,20
2022-10-23T22:16:08.165Z,20
2022-10-23T22:18:39.283Z,24
2022-10-23T22:21:10.331Z,20
2022-10-23T22:23:40.998Z,20
2022-10-23T22:26:11.672Z,20
2022-10-23T22:28:43.202Z,20
2022-10-23T22:31:14.841Z,20
2022-10-23T22:33:45.560Z,20
2022-10-23T22:36:15.988Z,20
2022-10-23T22:38:46.804Z,24
2022-10-23T22:41:17.729Z,20
2022-10-23T22:43:48.856Z,20
2022-10-23T22:46:19.636Z,24
2022-10-23T22:48:50.273Z,24
2022-10-23T22:51:20.840Z,24
2022-10-23T22:53:52.967Z,20
2022-10-23T22:56:25.035Z,20
2022-10-23T22:58:56.216Z,20
2022-10-23T23:01:30.924Z,20
2022-10-23T23:04:08.570Z,22
2022-10-23T23:06:32.846Z,20
2022-10-23T23:09:04.286Z,20
2022-10-23T23:11:40.792Z,20
2022-10-23T23:16:36.131Z,20
2022-10-23T23:19:07.607Z,21
2022-10-23T23:21:38.354Z,17
2022-10-23T23:24:08.830Z,24
2022-10-23T23:26:39.778Z,20
2022-10-23T23:29:10.578Z,20
2022-10-23T23:31:43.053Z,20
2022-10-23T23:34:14.117Z,20
2022-10-23T23:36:46.378Z,24
2022-10-23T23:39:17.548Z,24
2022-10-23T23:41:47.866Z,24
2022-10-23T23:44:19.027Z,20
2022-10-23T23:46:50.332Z,22
2022-10-23T23:49:21.001Z,23
2022-10-23T23:51:51.614Z,20
2022-10-23T23:54:22.585Z,24
2022-10-23T23:56:53.562Z,24
2022-10-23T23:59:25.759Z,24
